Data for 12/08/2005

Time Sea-Level Adjusted Pressure Absolute Pressure Temperature Relative Humidity Dew Point   
(mb) (inHg) (mb) (inHg) (C) (F) (%) (C) (F)
00:05 1022 30.18 851 25.13 -20.6 -5.2 78 -23.5 -10.3
00:10 1022 30.18 851 25.13 -20.6 -5 79 -23.4 -10.1
00:15 1022 30.18 851 25.13 -20.4 -4.7 78 -23.3 -10
00:20 1022 30.18 851 25.13 -20.5 -5 79 -23.2 -9.8
00:25 1021 30.15 851 25.13 -20.2 -4.4 79 -22.9 -9.3
00:30 1021 30.15 851 25.13 -19.8 -3.7 81 -22.3 -8.2
00:35 1021 30.15 851 25.13 -19.9 -3.7 81 -22.4 -8.2
00:40 1021 30.15 850 25.1 -19.5 -3.1 80 -22.2 -7.9
00:45 1021 30.15 850 25.1 -19.2 -2.6 78 -22.1 -7.9
00:50 1021 30.15 850 25.1 -19.5 -3.1 78 -22.5 -8.4
00:55 1021 30.15 850 25.1 -19.8 -3.6 77 -22.8 -9
01:00 1021 30.15 850 25.1 -20.2 -4.4 78 -23.2 -9.7
01:05 1021 30.15 850 25.1 -20.5 -4.9 78 -23.3 -10
01:10 1021 30.15 850 25.1 -20.4 -4.6 78 -23.2 -9.8
01:15 1021 30.15 850 25.1 -19.8 -3.7 78 -22.8 -9
01:20 1021 30.15 850 25.1 -19.7 -3.4 76 -22.9 -9.2
01:25 1021 30.15 850 25.1 -19.8 -3.6 75 -23.2 -9.7
01:30 1021 30.15 850 25.1 -19.9 -3.9 74 -23.4 -10.2
01:35 1021 30.15 850 25.1 -19.9 -3.9 75 -23.2 -9.8
01:40 1021 30.15 850 25.1 -20 -3.9 76 -23.2 -9.7
01:45 1021 30.15 850 25.1 -19.6 -3.3 76 -22.9 -9.2
01:50 1021 30.15 850 25.1 -19.6 -3.3 77 -22.7 -8.9
01:55 1021 30.15 850 25.1 -19.6 -3.2 76 -22.9 -9.2
02:00 1021 30.15 850 25.1 -19.6 -3.2 75 -23 -9.3
02:05 1021 30.15 850 25.1 -19.9 -3.8 75 -23.2 -9.8
02:10 1021 30.15 850 25.1 -20.2 -4.3 76 -23.4 -10.2
02:15 1021 30.15 850 25.1 -20.2 -4.4 78 -23.1 -9.6
02:20 1021 30.15 850 25.1 -20.1 -4.2 78 -23 -9.5
02:25 1021 30.15 850 25.1 -19.8 -3.6 77 -22.8 -9.1
02:30 1021 30.15 851 25.13 -19.4 -3 75 -22.7 -8.9
02:35 1021 30.15 851 25.13 -19.3 -2.7 75 -22.6 -8.6
02:40 1022 30.18 851 25.13 -19.1 -2.3 73 -22.8 -9.1
02:45 1022 30.18 851 25.13 -19.1 -2.4 72 -23 -9.3
02:50 1022 30.18 851 25.13 -19.2 -2.6 73 -22.9 -9.1
02:55 1022 30.18 851 25.13 -19.5 -3 75 -22.8 -9.1
03:00 1022 30.18 851 25.13 -19.4 -3 77 -22.5 -8.5
03:05 1022 30.18 851 25.13 -19.1 -2.3 76 -22.3 -8.2
03:10 1022 30.18 851 25.13 -19.7 -3.5 80 -22.4 -8.3
03:15 1022 30.18 851 25.13 -19.8 -3.6 80 -22.4 -8.2
03:20 1022 30.18 851 25.13 -19.8 -3.6 79 -22.5 -8.5
03:25 1022 30.18 851 25.13 -20 -4 80 -22.6 -8.7
03:30 1022 30.18 851 25.13 -19.9 -3.9 80 -22.6 -8.6
03:35 1022 30.18 851 25.13 -20.1 -4.2 80 -22.7 -8.9
03:40 1022 30.18 851 25.13 -19.8 -3.7 82 -22.1 -7.8
03:45 1021 30.15 851 25.13 -19.3 -2.7 78 -22.1 -7.8
03:50 1021 30.15 851 25.13 -19.3 -2.7 78 -22.3 -8.1
03:55 1021 30.15 851 25.13 -19.3 -2.8 76 -22.5 -8.5
04:00 1021 30.15 851 25.13 -19.3 -2.8 75 -22.7 -8.8
04:05 1021 30.15 850 25.1 -19.1 -2.4 74 -22.6 -8.7
04:10 1021 30.15 850 25.1 -18.7 -1.6 74 -22.2 -8
04:15 1021 30.15 850 25.1 -18.7 -1.7 75 -22.2 -7.9
04:20 1021 30.15 850 25.1 -19 -2.2 74 -22.5 -8.5
04:25 1021 30.15 850 25.1 -19 -2.1 74 -22.5 -8.4
04:30 1021 30.15 851 25.13 -18.9 -1.9 74 -22.5 -8.4
04:35 1021 30.15 851 25.13 -18.9 -2 76 -22.1 -7.7
04:40 1021 30.15 851 25.13 -18.8 -1.8 74 -22.4 -8.3
04:45 1021 30.15 851 25.13 -19.2 -2.6 72 -23.1 -9.6
04:50 1021 30.15 851 25.13 -19.6 -3.2 73 -23.2 -9.8
04:55 1021 30.15 851 25.13 -19.6 -3.2 75 -22.9 -9.3
05:00 1021 30.15 851 25.13 -19.2 -2.6 74 -22.7 -8.9
05:05 1021 30.15 851 25.13 -19.3 -2.7 73 -23 -9.4
05:10 1021 30.15 851 25.13 -19.4 -2.8 75 -22.7 -8.9
05:15 1021 30.15 851 25.13 -19 -2.2 73 -22.6 -8.7
05:20 1021 30.15 850 25.1 -19 -2.1 74 -22.4 -8.4
05:25 1021 30.15 850 25.1 -18.9 -2 74 -22.5 -8.5
05:30 1021 30.15 850 25.1 -18.7 -1.7 77 -21.8 -7.3
05:35 1021 30.15 850 25.1 -18.7 -1.7 77 -21.8 -7.3
05:40 1021 30.15 850 25.1 -18.8 -1.9 76 -22.1 -7.8
05:45 1021 30.15 850 25.1 -19 -2.1 74 -22.4 -8.4
05:50 1021 30.15 850 25.1 -18.9 -2 73 -22.7 -8.8
05:55 1021 30.15 850 25.1 -18.9 -2 73 -22.5 -8.5
06:00 1021 30.15 850 25.1 -18.9 -2.1 74 -22.5 -8.4
06:05 1021 30.15 850 25.1 -19 -2.1 73 -22.7 -8.8
06:10 1021 30.15 850 25.1 -18.9 -1.9 73 -22.5 -8.5
06:15 1021 30.15 850 25.1 -18.7 -1.7 73 -22.4 -8.4
06:20 1020 30.12 850 25.1 -18.5 -1.4 73 -22.3 -8.1
06:25 1020 30.12 850 25.1 -18.2 -0.7 71 -22.3 -8.2
06:30 1020 30.12 850 25.1 -18.2 -0.8 72 -22.2 -7.9
06:35 1020 30.12 850 25.1 -18.6 -1.4 74 -22.1 -7.8
06:40 1020 30.12 850 25.1 -18.5 -1.2 75 -21.8 -7.3
06:45 1020 30.12 850 25.1 -18.3 -0.9 73 -22 -7.5
06:50 1020 30.12 850 25.1 -18.2 -0.7 72 -22.1 -7.7
06:55 1020 30.12 849 25.07 -18.1 -0.5 72 -22 -7.6
07:00 1020 30.12 850 25.1 -18.1 -0.5 72 -21.9 -7.5
07:05 1020 30.12 849 25.07 -17.9 -0.2 74 -21.5 -6.8
07:10 1020 30.12 849 25.07 -18 -0.5 75 -21.5 -6.6
07:15 1020 30.12 849 25.07 -17.9 -0.2 76 -21.2 -6.2
07:20 1020 30.12 849 25.07 -17.6 0.4 77 -20.8 -5.4
07:25 1020 30.12 850 25.1 -17.3 0.8 75 -20.8 -5.4
07:30 1020 30.12 850 25.1 -17.1 1.2 73 -20.8 -5.4
07:35 1020 30.12 850 25.1 -17.1 1.3 72 -21 -5.9
07:40 1021 30.15 850 25.1 -17.1 1.3 72 -21.1 -5.9
07:45 1021 30.15 850 25.1 -17.2 1.1 72 -21.1 -6
07:50 1021 30.15 850 25.1 -17.3 0.9 73 -21 -5.9
07:55 1021 30.15 850 25.1 -17.3 0.9 73 -21 -5.8
08:00 1021 30.15 850 25.1 -17.4 0.6 74 -21 -5.9
08:05 1021 30.15 851 25.13 -17.6 0.2 76 -20.9 -5.6
08:10 1022 30.18 851 25.13 -17.7 0.2 77 -20.8 -5.4
08:15 1022 30.18 851 25.13 -17.8 -0.1 78 -20.8 -5.5
08:20 1022 30.18 851 25.13 -18.2 -0.8 81 -20.8 -5.4
08:25 1022 30.18 851 25.13 -18.4 -1.2 78 -21.4 -6.5
08:30 1022 30.18 851 25.13 -18.8 -1.8 76 -22.1 -7.7
08:35 1022 30.18 851 25.13 -18.9 -2 76 -22.1 -7.7
08:40 1022 30.18 851 25.13 -18.7 -1.6 76 -21.9 -7.4
08:45 1022 30.18 851 25.13 -18.5 -1.2 75 -21.9 -7.4
08:50 1022 30.18 851 25.13 -18.2 -0.8 74 -21.7 -7.1
08:55 1022 30.18 851 25.13 -17.6 0.3 72 -21.5 -6.7
09:00 1022 30.18 851 25.13 -17.3 0.9 70 -21.6 -6.8
09:05 1022 30.18 851 25.13 -17.2 1.1 69 -21.6 -6.9
09:10 1022 30.18 851 25.13 -16.8 1.8 70 -21.1 -6
09:15 1022 30.18 851 25.13 -16.2 2.9 69 -20.7 -5.2
09:20 1022 30.18 851 25.13 -15.8 3.6 69 -20.2 -4.3
09:25 1022 30.18 851 25.13 -15.6 3.8 71 -19.8 -3.6
09:30 1022 30.18 851 25.13 -16.3 2.8 74 -19.9 -3.8
09:35 1022 30.18 851 25.13 -16.8 1.7 76 -20.1 -4.2
09:40 1022 30.18 851 25.13 -16.9 1.7 75 -20.3 -4.5
09:45 1022 30.18 851 25.13 -16.5 2.4 76 -19.7 -3.5
09:50 1022 30.18 851 25.13 -16.2 2.8 75 -19.7 -3.5
09:55 1022 30.18 851 25.13 -15.9 3.4 74 -19.6 -3.2
10:00 1022 30.18 851 25.13 -15.8 3.7 72 -19.7 -3.5
10:05 1022 30.18 851 25.13 -15.4 4.2 69 -19.9 -3.9
10:10 1022 30.18 851 25.13 -15.2 4.7 72 -19.2 -2.5
10:15 1022 30.18 851 25.13 -14.8 5.3 70 -19.1 -2.3
10:20 1022 30.18 851 25.13 -14.4 6 70 -18.8 -1.9
10:25 1022 30.18 851 25.13 -13.9 6.9 68 -18.6 -1.5
10:30 1022 30.18 851 25.13 -13.5 7.6 63 -19.2 -2.5
10:35 1022 30.18 851 25.13 -12.8 9 60 -19.1 -2.4
10:40 1022 30.18 851 25.13 -12.9 8.9 63 -18.5 -1.2
10:45 1022 30.18 851 25.13 -12.9 8.7 66 -18 -0.4
10:50 1022 30.18 851 25.13 -12.9 8.7 66 -18 -0.4
10:55 1022 30.18 851 25.13 -12.4 9.7 63 -18.1 -0.6
11:00 1022 30.18 851 25.13 -12.3 9.8 62 -18.3 -0.9
11:05 1022 30.18 851 25.13 -12.3 9.9 61 -18.3 -0.9
11:10 1022 30.18 851 25.13 -12.3 9.8 61 -18.4 -1.1
11:15 1022 30.18 851 25.13 -12 10.5 57 -18.9 -2
11:20 1021 30.15 851 25.13 -11.8 10.7 57 -18.7 -1.7
11:25 1021 30.15 851 25.13 -11.2 11.9 56 -18.3 -1
11:30 1021 30.15 851 25.13 -10.8 12.6 57 -17.8 -0
11:35 1022 30.18 851 25.13 -10.9 12.5 55 -18.1 -0.7
11:40 1021 30.15 851 25.13 -11.1 12 60 -17.4 0.6
11:45 1021 30.15 850 25.1 -11.1 12 58 -17.8 0
11:50 1021 30.15 850 25.1 -11.2 11.8 60 -17.6 0.3
11:55 1021 30.15 850 25.1 -10.5 13.1 55 -17.9 -0.2
12:00 1021 30.15 850 25.1 -9.3 15.3 48 -18.3 -1
12:05 1021 30.15 850 25.1 -8.6 16.5 50 -17.3 0.8
12:10 1021 30.15 851 25.13 -9.1 15.7 54 -16.7 2
12:15 1021 30.15 851 25.13 -9 15.7 54 -16.7 2
12:20 1021 30.15 851 25.13 -9.4 15 57 -16.6 2.2
12:25 1021 30.15 851 25.13 -10 14 57 -17 1.4
12:30 1021 30.15 851 25.13 -10 14 53 -17.8 0
12:35 1021 30.15 851 25.13 -10.1 13.8 55 -17.5 0.6
12:40 1021 30.15 851 25.13 -10.4 13.3 56 -17.5 0.4
12:45 1021 30.15 851 25.13 -10.5 13.2 59 -16.9 1.5
12:50 1021 30.15 850 25.1 -10.5 13.2 59 -17.1 1.2
12:55 1021 30.15 850 25.1 -10.6 12.9 56 -17.7 0.1
13:00 1021 30.15 850 25.1 -10.6 12.9 56 -17.7 0.1
13:05 1021 30.15 851 25.13 -10.8 12.6 57 -17.8 -0.1
13:10 1022 30.18 851 25.13 -11.2 11.9 60 -17.5 0.5
13:15 1021 30.15 851 25.13 -11.4 11.5 63 -17.1 1.2
13:20 1021 30.15 851 25.13 -11.1 12 60 -17.4 0.8
13:25 1021 30.15 850 25.1 -10.6 13 56 -17.8 -0
13:30 1021 30.15 850 25.1 -11.2 11.9 61 -17.4 0.7
13:35 1021 30.15 850 25.1 -10.5 13 56 -17.6 0.2
13:40 1021 30.15 850 25.1 -10.8 12.5 55 -18.1 -0.6
13:45 1021 30.15 850 25.1 -10.9 12.4 57 -17.9 -0.2
13:50 1021 30.15 850 25.1 -9.8 14.3 48 -18.8 -1.9
13:55 1021 30.15 851 25.13 -9.8 14.4 49 -18.7 -1.6
14:00 1021 30.15 851 25.13 -9.7 14.6 50 -18.2 -0.7
14:05 1021 30.15 851 25.13 -9.8 14.4 48 -18.8 -1.8
14:10 1021 30.15 851 25.13 -9.8 14.4 47 -19.1 -2.3
14:15 1022 30.18 851 25.13 -10.5 13.2 50 -19.1 -2.3
14:20 1022 30.18 851 25.13 -10.8 12.6 46 -20.2 -4.3
14:25 1022 30.18 851 25.13 -10.5 13.1 48 -19.5 -3
14:30 1022 30.18 851 25.13 -9.8 14.4 46 -19.2 -2.6
14:35 1022 30.18 851 25.13 -9.3 15.3 43 -19.8 -3.7
14:40 1022 30.18 851 25.13 -9.5 15 48 -18.6 -1.5
14:45 1022 30.18 851 25.13 -10.1 13.9 48 -19.1 -2.4
14:50 1022 30.18 851 25.13 -10.5 13.2 53 -18.2 -0.8
14:55 1022 30.18 851 25.13 -10.6 12.9 54 -18.3 -0.9
15:00 1022 30.18 851 25.13 -11 12.1 56 -18.2 -0.7
15:05 1022 30.18 851 25.13 -11 12.2 57 -18 -0.4
15:10 1022 30.18 851 25.13 -11.2 11.9 55 -18.5 -1.3
15:15 1022 30.18 851 25.13 -11 12.1 51 -19.2 -2.6
15:20 1022 30.18 852 25.16 -10.9 12.5 51 -19.1 -2.3
15:25 1022 30.18 851 25.13 -10.8 12.6 51 -19 -2.1
15:30 1022 30.18 851 25.13 -10.7 12.7 49 -19.6 -3.2
15:35 1022 30.18 851 25.13 -10.6 12.9 53 -18.5 -1.2
15:40 1022 30.18 851 25.13 -10.6 13 56 -17.7 0.2
15:45 1022 30.18 851 25.13 -10.7 12.7 61 -17 1.5
15:50 1022 30.18 851 25.13 -10.5 13 61 -16.7 1.9
15:55 1022 30.18 851 25.13 -10.1 13.8 59 -16.6 2.1
16:00 1022 30.18 851 25.13 -9.8 14.4 56 -17 1.4
16:05 1022 30.18 851 25.13 -9.9 14.2 59 -16.5 2.3
16:10 1022 30.18 852 25.16 -9.8 14.3 50 -18.4 -1.2
16:15 1022 30.18 852 25.16 -9.6 14.6 54 -17.4 0.7
16:20 1022 30.18 852 25.16 -9.2 15.5 49 -18.1 -0.6
16:25 1022 30.18 852 25.16 -9 15.8 51 -17.3 0.9
16:30 1023 30.21 852 25.16 -9 15.8 46 -18.6 -1.4
16:35 1023 30.21 852 25.16 -9.4 15.1 48 -18.5 -1.3
16:40 1023 30.21 852 25.16 -9.4 15.1 52 -17.5 0.6
16:45 1023 30.21 852 25.16 -9.4 15.1 50 -18 -0.5
16:50 1023 30.21 852 25.16 -9.5 15 53 -17.3 0.8
16:55 1023 30.21 852 25.16 -9.2 15.4 52 -17.4 0.8
17:00 1023 30.21 852 25.16 -9.3 15.3 50 -17.9 -0.2
17:05 1023 30.21 852 25.16 -9.5 14.8 49 -18.5 -1.2
17:10 1023 30.21 852 25.16 -9.4 15 53 -17.2 1
17:15 1023 30.21 852 25.16 -9.2 15.5 55 -16.6 2.1
17:20 1023 30.21 852 25.16 -9.3 15.4 54 -17 1.4
17:25 1023 30.21 852 25.16 -9.1 15.7 51 -17.4 0.6
17:30 1023 30.21 852 25.16 -9 15.7 45 -18.8 -1.9
17:35 1023 30.21 852 25.16 -9 15.9 48 -18 -0.4
17:40 1023 30.21 852 25.16 -8.6 16.6 46 -18.2 -0.8
17:45 1023 30.21 852 25.16 -8.3 17 50 -17 1.4
17:50 1023 30.21 852 25.16 -8.5 16.8 54 -16.1 3
17:55 1023 30.21 852 25.16 -9.1 15.7 60 -15.5 4.1
18:00 1023 30.21 852 25.16 -9.2 15.5 61 -15.5 4.2
18:05 1023 30.21 852 25.16 -8.9 16 60 -15.3 4.5
18:10 1023 30.21 852 25.16 -8.8 16.1 61 -15.1 4.7
18:15 1023 30.21 852 25.16 -8.9 16 61 -15.2 4.7
18:20 1023 30.21 852 25.16 -9.3 15.3 64 -14.9 5.1
18:25 1023 30.21 852 25.16 -9.6 14.8 66 -14.8 5.3
18:30 1023 30.21 852 25.16 -9.2 15.4 64 -14.9 5.1
18:35 1023 30.21 852 25.16 -9 15.7 62 -15 5
18:40 1023 30.21 852 25.16 -9.2 15.5 63 -15 5.1
18:45 1023 30.21 852 25.16 -9.3 15.2 62 -15.3 4.5
18:50 1023 30.21 852 25.16 -9.6 14.8 63 -15.3 4.4
18:55 1023 30.21 852 25.16 -9.8 14.4 64 -15.3 4.5
19:00 1023 30.21 852 25.16 -9.7 14.6 65 -15.1 4.8
19:05 1023 30.21 852 25.16 -9.5 14.8 64 -15.1 4.9
19:10 1023 30.21 852 25.16 -9.6 14.7 63 -15.4 4.3
19:15 1023 30.21 852 25.16 -9.7 14.6 62 -15.6 3.9
19:20 1023 30.21 852 25.16 -9.5 14.9 66 -14.8 5.4
19:25 1023 30.21 852 25.16 -9.7 14.6 68 -14.6 5.7
19:30 1023 30.21 853 25.19 -9.9 14.3 63 -15.6 3.9
19:35 1023 30.21 852 25.16 -9.9 14.2 66 -15.1 4.9
19:40 1023 30.21 853 25.19 -10 13.9 70 -14.6 5.8
19:45 1023 30.21 853 25.19 -10 14 69 -14.6 5.7
19:50 1023 30.21 853 25.19 -9.9 14.1 62 -16 3.2
19:55 1023 30.21 853 25.19 -9.8 14.3 61 -16 3.3
20:00 1023 30.21 852 25.16 -9.8 14.3 61 -15.9 3.3
20:05 1023 30.21 852 25.16 -10.2 13.7 59 -16.8 1.7
20:10 1023 30.21 852 25.16 -10.6 13 54 -18.3 -0.9
20:15 1023 30.21 852 25.16 -10.2 13.6 51 -18.6 -1.4
20:20 1023 30.21 852 25.16 -10.1 13.8 55 -17.6 0.3
20:25 1023 30.21 852 25.16 -10.1 13.9 56 -17.3 0.8
20:30 1023 30.21 853 25.19 -10.3 13.4 58 -17 1.4
20:35 1023 30.21 853 25.19 -10.9 12.4 59 -17.5 0.6
20:40 1023 30.21 853 25.19 -10.9 12.5 58 -17.6 0.3
20:45 1023 30.21 853 25.19 -10.8 12.6 57 -17.8 -0
20:50 1023 30.21 853 25.19 -10.6 12.9 52 -18.6 -1.4
20:55 1023 30.21 853 25.19 -10.3 13.4 51 -18.6 -1.4
21:00 1023 30.21 853 25.19 -9.9 14.2 48 -19 -2.2
21:05 1023 30.21 853 25.19 -9.6 14.7 47 -18.9 -2
21:10 1023 30.21 853 25.19 -9.5 15 47 -18.8 -1.9
21:15 1023 30.21 853 25.19 -9.8 14.3 49 -18.5 -1.3
21:20 1023 30.21 853 25.19 -10.1 13.9 51 -18.3 -0.9
21:25 1023 30.21 853 25.19 -9.7 14.6 51 -18.1 -0.6
21:30 1023 30.21 853 25.19 -9.4 15.1 53 -17.3 0.9
21:35 1023 30.21 853 25.19 -10.4 13.3 56 -17.7 0.1
21:40 1023 30.21 853 25.19 -11.6 11.2 58 -18.3 -0.9
21:45 1023 30.21 853 25.19 -11.9 10.5 65 -17.2 1
21:50 1023 30.21 853 25.19 -12.3 9.9 68 -17.1 1.3
21:55 1023 30.21 853 25.19 -12.2 10 69 -16.9 1.6
22:00 1023 30.21 853 25.19 -11.9 10.6 70 -16.3 2.6
22:05 1023 30.21 853 25.19 -11.7 10.9 64 -17.2 1.1
22:10 1023 30.21 853 25.19 -11.6 11.1 65 -17 1.5
22:15 1023 30.21 853 25.19 -11.8 10.7 64 -17.3 0.8
22:20 1023 30.21 852 25.16 -12.1 10.2 66 -17.2 1
22:25 1023 30.21 852 25.16 -12.1 10.3 65 -17.5 0.6
22:30 1023 30.21 852 25.16 -11.7 10.9 62 -17.6 0.3
22:35 1023 30.21 852 25.16 -11.2 11.8 59 -17.6 0.2
22:40 1023 30.21 852 25.16 -10.5 13.2 55 -17.9 -0.2
22:45 1023 30.21 852 25.16 -10.3 13.5 56 -17.5 0.5
22:50 1023 30.21 853 25.19 -11.4 11.6 65 -16.8 1.8
22:55 1023 30.21 853 25.19 -12.2 10.1 64 -17.7 0.2
23:00 1023 30.21 853 25.19 -11.9 10.7 61 -18 -0.3
23:05 1023 30.21 853 25.19 -11.5 11.3 60 -17.8 -0
23:10 1024 30.24 853 25.19 -11.1 12 59 -17.5 0.4
23:15 1024 30.24 853 25.19 -11.4 11.5 62 -17.3 0.9
23:20 1024 30.24 853 25.19 -11.4 11.4 64 -17 1.5
23:25 1024 30.24 853 25.19 -11.6 11.2 67 -16.5 2.2
23:30 1024 30.24 853 25.19 -11.4 11.4 66 -16.6 2.2
23:35 1024 30.24 853 25.19 -11.3 11.6 68 -16.1 3
23:40 1024 30.24 853 25.19 -11.6 11.1 71 -15.9 3.3
23:45 1024 30.24 853 25.19 -12 10.5 75 -15.5 4.1
23:50 1024 30.24 853 25.19 -11.7 11 72 -15.7 3.7
23:55 1024 30.24 853 25.19 -11.3 11.8 72 -15.4 4.2
24:00 1024 30.24 853 25.19 -11.6 11.1 73 -15.5 4.1